Time;durP1;ratioP1;P1;durP2;ratioP2;P2;SDS_P1;SDS_P2;PMS_P1;PMS_P2;Temp;Humidity;BMP_temperature;BMP_pressure;BME280_temperature;BME280_humidity;BME280_pressure;Samples;Min_cycle;Max_cycle;Signal;HPM_P1;HPM_P2
2022/09/20 00:00:06;;;;;;;1.07;0.97;;;23.30;39.90;;;;;;6205314;23;20578;-64
2022/09/20 00:02:32;;;;;;;1.27;1.17;;;23.30;39.90;;;;;;6202597;23;20256;-58
2022/09/20 00:04:57;;;;;;;0.80;0.80;;;23.30;40.00;;;;;;6204393;23;20411;-58
2022/09/20 00:07:23;;;;;;;1.10;1.00;;;23.30;39.90;;;;;;6204889;23;20197;-63
2022/09/20 00:09:48;;;;;;;1.13;0.90;;;23.30;39.90;;;;;;6204536;23;20205;-59
2022/09/20 00:12:14;;;;;;;1.03;0.93;;;23.30;39.90;;;;;;6203707;23;20649;-59
2022/09/20 00:14:40;;;;;;;1.10;0.90;;;23.30;39.90;;;;;;6204308;23;20221;-61
2022/09/20 00:17:05;;;;;;;1.03;0.93;;;23.30;40.00;;;;;;6203505;23;20249;-61
2022/09/20 00:19:31;;;;;;;2.67;1.07;;;23.30;39.90;;;;;;6202174;23;20191;-63
2022/09/20 00:21:56;;;;;;;0.80;0.80;;;23.30;39.90;;;;;;6204363;23;20194;-62
2022/09/20 00:24:22;;;;;;;1.10;1.00;;;23.30;39.90;;;;;;6205642;23;20196;-59
2022/09/20 00:26:47;;;;;;;1.20;1.10;;;23.30;39.90;;;;;;6205088;23;20201;-59
2022/09/20 00:29:13;;;;;;;1.20;0.90;;;23.30;40.00;;;;;;6201674;23;20201;-60
2022/09/20 00:31:41;;;;;;;1.43;1.00;;;23.30;39.90;;;;;;6204677;23;20210;-59
2022/09/20 00:36:53;;;;;;;1.10;1.00;;;23.30;40.00;;;;;;6204586;23;20427;-60
2022/09/20 00:39:19;;;;;;;0.80;0.80;;;23.30;40.00;;;;;;6203945;23;20498;-60
2022/09/20 00:41:45;;;;;;;1.13;1.03;;;23.30;40.00;;;;;;6205660;23;20265;-62
2022/09/20 00:44:46;;;;;;;1.20;0.90;;;23.30;40.00;;;;;;6206258;23;20201;-60
2022/09/20 00:47:30;;;;;;;1.10;1.00;;;23.30;39.90;;;;;;6198951;23;20498;-59
2022/09/20 00:50:03;;;;;;;1.10;1.00;;;23.30;40.00;;;;;;6181897;23;20424;-62
2022/09/20 00:52:29;;;;;;;0.80;0.73;;;23.30;40.00;;;;;;6179602;23;20455;-59
2022/09/20 00:54:57;;;;;;;0.80;0.80;;;23.30;40.00;;;;;;6204334;23;20419;-58
2022/09/20 00:57:23;;;;;;;1.23;1.13;;;23.30;40.00;;;;;;6204587;23;20415;-59
2022/09/20 00:59:50;;;;;;;0.90;0.90;;;23.30;40.00;;;;;;6205103;23;20420;-59
2022/09/20 01:02:20;;;;;;;1.17;1.07;;;23.30;40.00;;;;;;6190259;23;20289;-61
2022/09/20 01:04:47;;;;;;;1.10;0.90;;;23.30;40.00;;;;;;6196728;23;20407;-60
2022/09/20 01:07:15;;;;;;;1.10;1.00;;;23.30;40.00;;;;;;6197519;23;20409;-65
2022/09/20 01:09:41;;;;;;;1.13;1.03;;;23.30;40.00;;;;;;6178480;23;20417;-61
2022/09/20 01:12:13;;;;;;;1.00;0.90;;;23.30;40.00;;;;;;6178237;23;20494;-58
2022/09/20 01:14:42;;;;;;;1.10;1.00;;;23.30;40.00;;;;;;6205101;23;20202;-66
2022/09/20 01:17:10;;;;;;;1.07;0.97;;;23.30;40.00;;;;;;6207152;23;20443;-61
2022/09/20 01:19:56;;;;;;;0.87;0.80;;;23.30;40.10;;;;;;6209004;23;20408;-59
2022/09/20 01:22:45;;;;;;;0.90;0.90;;;23.30;40.00;;;;;;6178865;23;20817;-62
2022/09/20 01:25:17;;;;;;;1.20;1.10;;;23.30;40.00;;;;;;6191568;23;20415;-59
2022/09/20 01:27:49;;;;;;;1.00;0.90;;;23.30;40.00;;;;;;6175824;23;20408;-62
2022/09/20 01:30:23;;;;;;;1.00;1.00;;;23.30;40.00;;;;;;6174698;23;20433;-58
2022/09/20 01:33:07;;;;;;;1.17;0.80;;;23.30;40.00;;;;;;6175955;23;20863;-58
2022/09/20 01:35:34;;;;;;;1.00;0.90;;;23.30;40.00;;;;;;6194049;23;20857;-60
2022/09/20 01:38:41;;;;;;;1.00;0.90;;;23.30;40.00;;;;;;6204772;23;20416;-62
2022/09/20 01:41:34;;;;;;;0.90;0.90;;;23.30;40.00;;;;;;6175271;23;20920;-58
2022/09/20 01:44:36;;;;;;;1.10;1.00;;;23.30;39.90;;;;;;6175453;23;20507;-58
2022/09/20 01:47:19;;;;;;;1.63;1.10;;;23.30;40.00;;;;;;6188855;23;20418;-63
2022/09/20 01:50:32;;;;;;;0.90;0.80;;;23.20;39.90;;;;;;6204262;23;20434;-60
2022/09/20 01:53:38;;;;;;;1.00;0.90;;;23.30;40.00;;;;;;6194005;23;20420;-61
2022/09/20 01:56:29;;;;;;;1.07;0.97;;;23.30;40.00;;;;;;6176249;23;20409;-58
2022/09/20 01:59:37;;;;;;;1.00;0.90;;;23.30;40.10;;;;;;6197773;23;20420;-58
2022/09/20 02:02:33;;;;;;;1.10;1.00;;;23.30;40.10;;;;;;6204382;23;20786;-60
2022/09/20 02:05:07;;;;;;;0.80;0.80;;;23.30;40.00;;;;;;6185686;23;20479;-59
2022/09/20 02:07:48;;;;;;;2.17;1.20;;;23.20;40.00;;;;;;6206026;23;20418;-59
2022/09/20 02:10:56;;;;;;;1.57;0.80;;;23.30;40.10;;;;;;6171693;23;20444;-59
2022/09/20 02:13:58;;;;;;;1.10;1.00;;;23.30;40.00;;;;;;6188063;23;20422;-58
2022/09/20 02:16:24;;;;;;;0.80;0.73;;;23.30;40.10;;;;;;6176424;23;20833;-59
2022/09/20 02:19:11;;;;;;;1.03;0.93;;;23.20;40.00;;;;;;6176957;23;20889;-59
2022/09/20 02:22:08;;;;;;;1.30;1.20;;;23.30;40.10;;;;;;6199376;23;20198;-63
2022/09/20 02:25:00;;;;;;;0.80;0.80;;;23.20;39.90;;;;;;6205317;23;20905;-60
2022/09/20 02:27:46;;;;;;;1.00;0.80;;;23.30;40.10;;;;;;6203307;23;20420;-59
2022/09/20 02:30:19;;;;;;;0.80;0.80;;;23.20;40.00;;;;;;6198071;23;20411;-65
2022/09/20 02:33:13;;;;;;;0.97;0.87;;;23.20;40.00;;;;;;6195859;23;20408;-64
2022/09/20 02:36:10;;;;;;;1.30;1.03;;;23.20;40.00;;;;;;6197430;23;20416;-60
2022/09/20 02:39:01;;;;;;;0.80;0.70;;;23.20;40.00;;;;;;6180334;23;20495;-59
2022/09/20 02:41:45;;;;;;;1.00;0.90;;;23.20;40.00;;;;;;6199111;23;20407;-61
2022/09/20 02:44:26;;;;;;;0.90;0.80;;;23.20;40.00;;;;;;6201249;23;20438;-59
2022/09/20 02:47:00;;;;;;;1.03;0.93;;;23.20;40.00;;;;;;6204423;23;20423;-60
2022/09/20 02:49:50;;;;;;;0.90;0.80;;;23.20;40.00;;;;;;6205293;23;21126;-64
2022/09/20 02:52:36;;;;;;;1.00;0.90;;;23.20;40.00;;;;;;6190552;23;20510;-60
2022/09/20 02:55:37;;;;;;;1.20;1.10;;;23.20;40.00;;;;;;6175353;23;20919;-59
2022/09/20 02:58:24;;;;;;;0.80;0.80;;;23.20;40.00;;;;;;6135292;23;20419;-60
2022/09/20 03:00:56;;;;;;;0.97;0.90;;;23.20;40.10;;;;;;6172335;23;20420;-58
2022/09/20 03:04:01;;;;;;;1.10;1.00;;;23.20;40.10;;;;;;6204800;23;20512;-58
2022/09/20 03:06:42;;;;;;;1.10;0.97;;;23.20;40.10;;;;;;6203700;23;20497;-58
2022/09/20 03:09:41;;;;;;;1.10;1.00;;;23.20;40.10;;;;;;6197757;23;20411;-60
2022/09/20 03:12:27;;;;;;;1.23;0.80;;;23.20;40.10;;;;;;6204656;23;20422;-61
2022/09/20 03:15:23;;;;;;;0.80;0.77;;;23.20;40.00;;;;;;6204640;23;20748;-60
2022/09/20 03:18:16;;;;;;;0.90;0.70;;;23.20;40.10;;;;;;6188491;23;20514;-62
2022/09/20 03:21:02;;;;;;;1.27;0.90;;;23.20;40.10;;;;;;6175174;23;20877;-61
2022/09/20 03:23:56;;;;;;;0.90;0.90;;;23.20;40.10;;;;;;6175295;23;20425;-62
2022/09/20 03:26:49;;;;;;;1.00;0.80;;;23.20;40.10;;;;;;6183042;23;20416;-58
2022/09/20 03:29:38;;;;;;;0.90;0.90;;;23.20;40.10;;;;;;6183446;23;20424;-58
2022/09/20 03:32:40;;;;;;;1.00;0.90;;;23.20;40.10;;;;;;6193649;23;20432;-59
2022/09/20 03:35:06;;;;;;;1.10;0.90;;;23.20;40.10;;;;;;6194898;23;20437;-58
2022/09/20 03:37:43;;;;;;;1.10;1.00;;;23.20;40.10;;;;;;6189368;23;21159;-61
2022/09/20 03:40:36;;;;;;;1.00;0.90;;;23.20;40.10;;;;;;6197029;23;20197;-59
2022/09/20 03:43:21;;;;;;;0.90;0.90;;;23.20;40.10;;;;;;6192131;23;20503;-61
2022/09/20 03:46:14;;;;;;;2.17;0.90;;;23.20;40.10;;;;;;6196519;23;20441;-63
2022/09/20 03:49:18;;;;;;;1.07;0.97;;;23.20;40.10;;;;;;6178499;23;20439;-59
2022/09/20 03:51:50;;;;;;;0.80;0.70;;;23.20;40.10;;;;;;6174267;23;20431;-61
2022/09/20 03:54:38;;;;;;;1.10;0.90;;;23.20;40.10;;;;;;6174775;23;20436;-59
2022/09/20 03:57:22;;;;;;;1.00;0.90;;;23.20;40.10;;;;;;6187347;23;20408;-59
2022/09/20 04:00:13;;;;;;;1.00;0.90;;;23.20;40.10;;;;;;6175924;23;20511;-59
2022/09/20 04:03:12;;;;;;;0.80;0.80;;;23.20;40.10;;;;;;6185245;23;20413;-60
2022/09/20 04:05:56;;;;;;;1.00;1.00;;;23.20;40.10;;;;;;6172905;23;20462;-62
2022/09/20 04:08:59;;;;;;;1.10;1.00;;;23.20;40.10;;;;;;6203142;23;20443;-63
2022/09/20 04:11:50;;;;;;;0.90;0.90;;;23.20;40.10;;;;;;6203527;23;20438;-59
2022/09/20 04:14:33;;;;;;;1.90;1.10;;;23.20;40.20;;;;;;6180389;23;20412;-58
2022/09/20 04:17:32;;;;;;;1.07;0.97;;;23.20;40.10;;;;;;6189138;23;20494;-60
2022/09/20 04:20:22;;;;;;;0.80;0.80;;;23.20;40.10;;;;;;6182363;23;20869;-60
2022/09/20 04:22:53;;;;;;;0.97;0.80;;;23.20;40.10;;;;;;6173508;23;20420;-61
2022/09/20 04:25:33;;;;;;;1.07;0.97;;;23.20;40.10;;;;;;6175434;23;21109;-61
2022/09/20 04:28:21;;;;;;;1.17;0.87;;;23.20;40.10;;;;;;6173556;23;20412;-62
2022/09/20 04:30:50;;;;;;;0.80;0.80;;;23.20;40.00;;;;;;6194476;23;20494;-65
2022/09/20 04:33:34;;;;;;;1.07;0.90;;;23.20;40.10;;;;;;6170744;23;20419;-60
2022/09/20 04:36:27;;;;;;;1.40;1.30;;;23.30;40.10;;;;;;6171309;23;20836;-58
2022/09/20 04:39:37;;;;;;;0.80;0.70;;;23.20;40.00;;;;;;6189211;23;20463;-62
2022/09/20 04:42:19;;;;;;;0.90;0.80;;;23.30;40.00;;;;;;6206707;23;20418;-59
2022/09/20 04:45:06;;;;;;;0.90;0.80;;;23.30;40.00;;;;;;6194660;23;20415;-65
2022/09/20 04:48:09;;;;;;;1.90;1.50;;;23.30;40.00;;;;;;6198318;23;20415;-61
2022/09/20 04:50:38;;;;;;;0.80;0.70;;;23.30;40.00;;;;;;6200240;23;20450;-62
2022/09/20 04:53:51;;;;;;;1.63;1.53;;;23.30;40.00;;;;;;6200523;23;20669;-58
2022/09/20 04:56:40;;;;;;;1.10;1.00;;;23.30;40.00;;;;;;6121418;23;20404;-60
2022/09/20 04:59:16;;;;;;;1.10;0.80;;;23.30;40.00;;;;;;6202843;23;20422;-59
2022/09/20 05:02:16;;;;;;;1.00;0.87;;;23.30;40.00;;;;;;6181841;23;20415;-59
2022/09/20 05:05:23;;;;;;;0.93;0.90;;;23.30;40.00;;;;;;6175354;23;20486;-59
2022/09/20 05:08:05;;;;;;;1.03;0.93;;;23.30;40.00;;;;;;6177196;23;20497;-60
2022/09/20 05:11:11;;;;;;;1.00;0.90;;;23.30;40.10;;;;;;6182115;23;20442;-62
2022/09/20 05:14:11;;;;;;;0.83;0.83;;;23.30;40.00;;;;;;6183804;23;20411;-58
2022/09/20 05:17:06;;;;;;;0.80;0.80;;;23.30;40.10;;;;;;6203032;23;20424;-57
2022/09/20 05:19:57;;;;;;;1.73;1.00;;;23.20;40.00;;;;;;6200250;23;20414;-59
2022/09/20 05:22:33;;;;;;;0.93;0.83;;;23.30;40.10;;;;;;6174069;23;20431;-60
2022/09/20 05:25:27;;;;;;;1.10;1.00;;;23.30;40.00;;;;;;6178780;23;20408;-60
2022/09/20 05:28:24;;;;;;;2.27;1.20;;;23.30;40.10;;;;;;6200980;23;20942;-60
2022/09/20 05:30:59;;;;;;;1.10;1.00;;;23.30;40.00;;;;;;6180413;23;20464;-58
2022/09/20 05:33:51;;;;;;;1.33;1.23;;;23.30;40.10;;;;;;6183141;23;20950;-59
2022/09/20 05:36:29;;;;;;;1.07;1.00;;;23.30;40.10;;;;;;6179010;23;20899;-59
2022/09/20 05:39:53;;;;;;;0.80;0.80;;;23.30;40.10;;;;;;6179126;23;20447;-59
2022/09/20 05:42:31;;;;;;;1.40;1.07;;;23.30;40.00;;;;;;6057884;23;20568;-58
2022/09/20 05:45:22;;;;;;;1.10;1.00;;;23.30;40.10;;;;;;6208952;23;20430;-59
2022/09/20 05:47:58;;;;;;;1.00;0.90;;;23.30;40.10;;;;;;6209044;23;20423;-62
2022/09/20 05:50:38;;;;;;;2.13;1.00;;;23.30;40.10;;;;;;6209131;23;20451;-59
2022/09/20 05:53:20;;;;;;;1.17;0.80;;;23.20;40.00;;;;;;6208537;23;20424;-62
2022/09/20 05:55:59;;;;;;;1.30;1.00;;;23.30;40.10;;;;;;6184868;23;20415;-59
2022/09/20 05:59:09;;;;;;;1.90;1.40;;;23.20;39.90;;;;;;6208067;23;20821;-58
2022/09/20 06:01:57;;;;;;;1.47;1.03;;;23.30;40.10;;;;;;6205677;23;20872;-62
2022/09/20 06:04:28;;;;;;;1.03;1.00;;;23.20;40.00;;;;;;6182736;23;20424;-60
2022/09/20 06:07:17;;;;;;;1.10;1.00;;;23.30;40.10;;;;;;6167248;23;20425;-61
2022/09/20 06:10:06;;;;;;;2.10;1.20;;;23.20;40.00;;;;;;6198810;23;20447;-61
2022/09/20 06:12:34;;;;;;;5.17;1.50;;;23.20;40.00;;;;;;6197606;23;20423;-65
2022/09/20 06:15:34;;;;;;;1.20;1.10;;;23.20;40.00;;;;;;6164753;22;20813;-62
2022/09/20 06:18:15;;;;;;;2.37;1.63;;;23.30;40.10;;;;;;6194650;23;21145;-59
2022/09/20 06:20:53;;;;;;;2.60;1.50;;;23.20;40.80;;;;;;6175214;23;20420;-59
2022/09/20 06:23:20;;;;;;;1.27;0.93;;;23.30;40.10;;;;;;6170456;23;20481;-64
2022/09/20 06:25:56;;;;;;;1.20;1.00;;;23.30;40.10;;;;;;6167473;23;20412;-62
2022/09/20 06:28:29;;;;;;;1.20;1.10;;;23.30;40.10;;;;;;6193869;23;20444;-63
2022/09/20 06:30:56;;;;;;;1.10;1.00;;;23.30;40.10;;;;;;6198473;23;20435;-60
2022/09/20 06:33:27;;;;;;;1.90;1.10;;;23.30;40.80;;;;;;6201723;23;20503;-59
2022/09/20 06:42:05;;;;;;;1.10;1.00;;;23.30;40.10;;;;;;6171095;23;20432;-58
2022/09/20 06:44:31;;;;;;;1.00;0.90;;;23.20;40.00;;;;;;6169301;23;20413;-58
2022/09/20 06:46:57;;;;;;;1.33;1.10;;;23.20;40.00;;;;;;6159332;23;20191;-58
2022/09/20 06:49:23;;;;;;;1.27;1.07;;;23.30;40.10;;;;;;6158305;23;20197;-63
2022/09/20 06:51:49;;;;;;;1.00;0.90;;;23.30;40.10;;;;;;6153610;23;20215;-61
2022/09/20 06:54:20;;;;;;;1.33;1.00;;;23.20;40.00;;;;;;6156058;23;20927;-62
2022/09/20 06:56:48;;;;;;;1.33;1.10;;;23.30;40.00;;;;;;6160482;23;21019;-59
2022/09/20 06:59:14;;;;;;;1.20;1.10;;;23.20;39.90;;;;;;6157322;23;20421;-58
2022/09/20 07:01:40;;;;;;;1.20;0.80;;;23.30;40.10;;;;;;6152269;23;20503;-60
2022/09/20 07:04:06;;;;;;;2.87;1.60;;;23.30;40.10;;;;;;6158775;23;20697;-63
2022/09/20 07:06:32;;;;;;;1.30;1.20;;;23.30;40.10;;;;;;6149451;23;20421;-62
2022/09/20 07:08:58;;;;;;;2.13;1.00;;;23.30;40.10;;;;;;6152358;23;20506;-59
2022/09/20 07:11:24;;;;;;;2.63;1.10;;;23.30;40.00;;;;;;6170533;23;20487;-60
2022/09/20 07:13:54;;;;;;;1.13;1.03;;;23.20;40.00;;;;;;6167387;23;20191;-60
2022/09/20 07:16:20;;;;;;;3.37;1.10;;;23.20;40.00;;;;;;6171132;23;20210;-63
2022/09/20 07:18:47;;;;;;;1.50;1.03;;;23.30;40.10;;;;;;6172091;23;20569;-61
2022/09/20 07:21:15;;;;;;;1.13;0.97;;;23.30;40.10;;;;;;6168882;23;20902;-58
2022/09/20 07:23:41;;;;;;;1.20;1.10;;;23.30;40.10;;;;;;6173281;23;20875;-60
2022/09/20 07:26:20;;;;;;;0.90;0.80;;;23.30;40.00;;;;;;6174349;23;20440;-59
2022/09/20 07:28:46;;;;;;;0.90;0.90;;;23.30;40.10;;;;;;6170081;23;20269;-60
2022/09/20 07:31:12;;;;;;;1.00;0.90;;;23.30;40.10;;;;;;6170818;23;20556;-59
2022/09/20 07:33:38;;;;;;;1.93;1.20;;;23.30;40.10;;;;;;6172647;23;20201;-60
2022/09/20 07:36:03;;;;;;;1.10;1.00;;;23.20;39.90;;;;;;6169303;23;20412;-59
2022/09/20 07:38:29;;;;;;;1.13;0.97;;;23.30;40.00;;;;;;6171637;23;20210;-63
2022/09/20 07:40:59;;;;;;;1.30;0.97;;;23.30;40.10;;;;;;6171392;23;20289;-61
2022/09/20 07:43:25;;;;;;;1.10;1.00;;;23.30;40.00;;;;;;6169026;23;20538;-59
2022/09/20 07:45:55;;;;;;;0.80;0.80;;;23.30;40.10;;;;;;6170238;23;20824;-62
2022/09/20 07:48:26;;;;;;;1.40;1.20;;;23.30;40.10;;;;;;6170041;23;20412;-63
2022/09/20 07:50:54;;;;;;;1.30;1.00;;;23.30;40.00;;;;;;6171873;23;20510;-59
2022/09/20 07:53:19;;;;;;;0.80;0.80;;;23.30;40.00;;;;;;6170201;23;20531;-59
2022/09/20 07:56:05;;;;;;;1.10;1.00;;;23.30;40.00;;;;;;6166309;23;21050;-60
2022/09/20 07:58:33;;;;;;;1.00;0.90;;;23.30;40.00;;;;;;6170300;23;20199;-59
2022/09/20 08:01:02;;;;;;;1.10;1.00;;;23.30;40.00;;;;;;6169952;23;20479;-60
2022/09/20 08:03:31;;;;;;;1.17;1.07;;;23.30;40.10;;;;;;6171383;23;20456;-63
2022/09/20 08:06:02;;;;;;;2.70;1.13;;;23.30;40.00;;;;;;6172361;23;20417;-61
2022/09/20 08:08:30;;;;;;;0.87;0.87;;;23.30;40.00;;;;;;6171098;23;20488;-59
2022/09/20 08:11:08;;;;;;;1.07;1.00;;;23.30;40.10;;;;;;6171483;23;20475;-61
2022/09/20 08:13:41;;;;;;;0.80;0.80;;;23.20;39.90;;;;;;6166915;23;20487;-58
2022/09/20 08:16:09;;;;;;;1.00;0.90;;;23.20;39.90;;;;;;6173744;23;20452;-61
2022/09/20 08:18:35;;;;;;;1.03;0.93;;;23.30;40.00;;;;;;6202056;23;20897;-60
2022/09/20 08:21:06;;;;;;;1.30;0.90;;;23.30;40.00;;;;;;6201247;23;20428;-60
2022/09/20 08:23:36;;;;;;;1.10;1.00;;;23.30;40.80;;;;;;6201193;23;20424;-62
2022/09/20 08:26:02;;;;;;;2.80;1.10;;;23.30;40.10;;;;;;6202187;23;20416;-59
2022/09/20 08:28:31;;;;;;;1.60;0.90;;;23.30;40.00;;;;;;6203276;23;20418;-62
2022/09/20 08:31:04;;;;;;;1.30;1.20;;;23.30;40.00;;;;;;6201197;23;20471;-62
2022/09/20 08:33:30;;;;;;;1.47;0.87;;;23.30;40.10;;;;;;6202579;23;20471;-63
2022/09/20 08:35:56;;;;;;;1.10;1.00;;;23.30;40.10;;;;;;6201125;23;20412;-63
2022/09/20 08:38:26;;;;;;;1.23;1.13;;;23.30;40.10;;;;;;6199611;23;20958;-59
2022/09/20 08:41:08;;;;;;;5.90;1.07;;;23.30;40.10;;;;;;6200652;23;20194;-59
2022/09/20 08:43:50;;;;;;;1.20;0.87;;;23.30;40.00;;;;;;6198246;23;20423;-59
2022/09/20 08:46:18;;;;;;;1.40;1.10;;;23.30;40.00;;;;;;6168764;23;20793;-60
2022/09/20 08:48:45;;;;;;;1.20;1.10;;;23.20;39.90;;;;;;6172226;23;20444;-60
2022/09/20 08:51:17;;;;;;;2.10;0.97;;;23.30;40.00;;;;;;6170983;23;20424;-66
2022/09/20 08:53:51;;;;;;;0.90;0.90;;;23.30;40.00;;;;;;6174082;23;20495;-61
2022/09/20 08:56:17;;;;;;;1.30;0.90;;;23.30;40.00;;;;;;6173131;23;20416;-61
2022/09/20 08:58:44;;;;;;;1.00;0.93;;;23.30;40.00;;;;;;6172362;23;20798;-61
2022/09/20 09:01:19;;;;;;;1.00;0.90;;;23.30;40.00;;;;;;6173736;23;20498;-59
2022/09/20 09:03:44;;;;;;;2.87;0.90;;;23.30;40.00;;;;;;6171417;23;20563;-60
2022/09/20 09:06:21;;;;;;;0.80;0.80;;;23.30;40.00;;;;;;6170455;23;20790;-61
2022/09/20 09:08:50;;;;;;;1.07;0.97;;;23.30;40.00;;;;;;6173165;23;20182;-59
2022/09/20 09:11:19;;;;;;;1.10;1.00;;;23.30;40.00;;;;;;6171625;23;20975;-65
2022/09/20 09:14:47;;;;;;;1.00;0.90;;;23.30;40.00;;;;;;6172743;23;20405;-64
2022/09/20 09:16:52;;;;;;;1.20;1.10;;;23.30;40.00;;;;;;6201337;23;20495;-64
2022/09/20 09:19:30;;;;;;;1.00;0.90;;;23.30;40.00;;;;;;6202870;23;20458;-61
2022/09/20 09:22:01;;;;;;;2.00;1.00;;;23.30;40.00;;;;;;6201846;23;20420;-63
2022/09/20 09:24:30;;;;;;;0.80;0.80;;;23.30;39.90;;;;;;6201558;23;20482;-62
2022/09/20 09:27:18;;;;;;;1.10;1.00;;;23.30;40.00;;;;;;6203372;23;20416;-59
2022/09/20 09:29:54;;;;;;;0.90;0.70;;;23.30;39.90;;;;;;6176840;23;20412;-59
2022/09/20 09:32:30;;;;;;;1.00;0.90;;;23.30;39.90;;;;;;6173678;23;20467;-64
2022/09/20 09:35:07;;;;;;;1.20;1.00;;;23.30;40.00;;;;;;6172746;23;20460;-58
2022/09/20 09:37:33;;;;;;;1.97;0.90;;;23.30;39.90;;;;;;6173028;23;20742;-64
2022/09/20 09:40:17;;;;;;;0.80;0.80;;;23.30;40.00;;;;;;6173635;23;20462;-60
2022/09/20 09:42:52;;;;;;;1.40;0.90;;;23.30;39.90;;;;;;6176734;23;20197;-60
2022/09/20 09:45:37;;;;;;;0.83;0.80;;;23.30;39.90;;;;;;6205762;23;20430;-60
2022/09/20 09:48:21;;;;;;;1.20;1.10;;;23.30;39.80;;;;;;6202562;23;20460;-65
2022/09/20 09:50:47;;;;;;;1.40;0.93;;;23.30;39.90;;;;;;6195789;23;20992;-61
2022/09/20 09:53:17;;;;;;;1.03;0.90;;;23.30;39.90;;;;;;6183168;23;20882;-59
2022/09/20 09:55:51;;;;;;;1.10;1.00;;;23.30;39.90;;;;;;6180960;23;20222;-59
2022/09/20 09:58:33;;;;;;;1.10;0.90;;;23.30;39.80;;;;;;6205952;23;20431;-61
2022/09/20 10:01:04;;;;;;;1.80;0.90;;;23.30;39.80;;;;;;6203444;23;20420;-61
2022/09/20 10:03:50;;;;;;;1.00;0.90;;;23.30;39.90;;;;;;6199036;23;20740;-60
2022/09/20 10:06:59;;;;;;;0.90;0.77;;;23.30;39.90;;;;;;6173681;23;20428;-63
2022/09/20 10:09:39;;;;;;;1.80;1.00;;;23.30;39.80;;;;;;6184150;23;20411;-64
2022/09/20 10:12:37;;;;;;;1.00;0.90;;;23.30;39.90;;;;;;6170039;23;20428;-63
2022/09/20 10:15:41;;;;;;;1.10;1.00;;;23.30;39.80;;;;;;6173446;23;20412;-59
2022/09/20 10:18:28;;;;;;;0.80;0.80;;;23.30;39.80;;;;;;6160150;23;20840;-58
2022/09/20 10:21:15;;;;;;;1.73;0.80;;;23.30;39.80;;;;;;6176624;23;20801;-59
2022/09/20 10:24:05;;;;;;;1.30;1.03;;;23.30;39.80;;;;;;6185729;23;20466;-59
2022/09/20 10:26:52;;;;;;;1.03;0.90;;;23.30;39.80;;;;;;6197071;23;20479;-59
2022/09/20 10:29:34;;;;;;;1.00;0.90;;;23.30;39.80;;;;;;6195464;23;20507;-61
2022/09/20 10:32:06;;;;;;;1.60;0.87;;;23.30;39.80;;;;;;6199751;23;20417;-59
2022/09/20 10:34:32;;;;;;;0.80;0.80;;;23.30;39.70;;;;;;6174536;23;20424;-58
2022/09/20 10:36:59;;;;;;;1.50;1.00;;;23.30;39.80;;;;;;6173948;23;20428;-59
2022/09/20 10:39:32;;;;;;;2.63;1.00;;;23.30;39.70;;;;;;6195739;23;20198;-59
2022/09/20 10:44:50;;;;;;;0.87;0.73;;;23.30;39.70;;;;;;6203262;23;20427;-62
2022/09/20 10:47:20;;;;;;;1.37;0.97;;;23.30;39.70;;;;;;6205374;23;20420;-59
2022/09/20 10:49:59;;;;;;;1.20;0.70;;;23.30;39.60;;;;;;6208585;23;20411;-58
2022/09/20 10:52:40;;;;;;;0.70;0.70;;;23.30;39.60;;;;;;6206392;23;20430;-63
2022/09/20 10:55:30;;;;;;;1.10;0.80;;;23.20;39.60;;;;;;6202747;23;20422;-61
2022/09/20 10:58:18;;;;;;;1.73;0.90;;;23.20;39.60;;;;;;6176141;23;20424;-61
2022/09/20 11:01:17;;;;;;;1.03;0.83;;;23.20;39.60;;;;;;6199867;23;20551;-60
2022/09/20 11:04:06;;;;;;;0.70;0.70;;;23.30;39.60;;;;;;6188994;23;20947;-62
2022/09/20 11:07:06;;;;;;;0.93;0.83;;;23.30;39.50;;;;;;6174115;23;20424;-59
2022/09/20 11:09:47;;;;;;;1.30;0.90;;;23.20;39.50;;;;;;6197489;23;20412;-59
2022/09/20 11:12:37;;;;;;;1.17;0.90;;;23.30;39.60;;;;;;6205972;23;20428;-59
2022/09/20 11:15:13;;;;;;;0.73;0.60;;;23.30;39.60;;;;;;6205684;23;20770;-60
2022/09/20 11:17:44;;;;;;;1.10;0.90;;;23.30;39.80;;;;;;6206127;23;20521;-59
2022/09/20 11:20:31;;;;;;;1.50;0.90;;;23.30;39.60;;;;;;6203455;23;20412;-60
2022/09/20 11:23:20;;;;;;;0.90;0.70;;;23.30;39.50;;;;;;6205017;23;20411;-61
2022/09/20 11:25:50;;;;;;;1.00;0.90;;;23.30;39.50;;;;;;6173763;23;20417;-59
2022/09/20 11:28:26;;;;;;;0.90;0.80;;;23.30;39.60;;;;;;6174618;23;20440;-62
2022/09/20 11:31:11;;;;;;;0.80;0.80;;;23.30;39.50;;;;;;6176216;23;20440;-58
2022/09/20 11:33:51;;;;;;;0.90;0.70;;;23.30;39.50;;;;;;6175539;23;20470;-59
2022/09/20 11:36:33;;;;;;;0.70;0.70;;;23.30;39.50;;;;;;6195299;23;20422;-58
2022/09/20 11:39:09;;;;;;;2.23;0.90;;;23.20;39.40;;;;;;6174662;23;20431;-63
2022/09/20 11:41:35;;;;;;;0.80;0.80;;;23.20;39.50;;;;;;6203311;23;20422;-61
2022/09/20 11:44:10;;;;;;;0.80;0.60;;;23.30;39.50;;;;;;6200455;23;20502;-61
2022/09/20 11:46:52;;;;;;;0.80;0.80;;;23.20;39.40;;;;;;6203550;23;20415;-64
2022/09/20 11:49:25;;;;;;;1.10;0.80;;;23.30;39.50;;;;;;6186834;23;21104;-62
2022/09/20 11:52:21;;;;;;;0.70;0.70;;;23.30;39.50;;;;;;6199546;23;20427;-64
2022/09/20 11:55:11;;;;;;;1.00;0.60;;;23.30;39.50;;;;;;6195628;23;20434;-60
2022/09/20 11:57:37;;;;;;;1.70;0.70;;;23.30;39.50;;;;;;6196765;23;20514;-62
2022/09/20 12:00:06;;;;;;;0.80;0.70;;;23.30;39.50;;;;;;6202620;23;20443;-60
2022/09/20 12:02:45;;;;;;;3.63;0.90;;;23.30;39.40;;;;;;6203644;23;20209;-58
2022/09/20 12:05:32;;;;;;;0.80;0.60;;;23.30;39.40;;;;;;6200935;23;20910;-60
2022/09/20 12:08:01;;;;;;;1.00;0.90;;;23.30;39.40;;;;;;6183390;23;20421;-59
2022/09/20 12:10:36;;;;;;;0.80;0.80;;;23.30;39.40;;;;;;6202877;23;20425;-60
2022/09/20 12:13:05;;;;;;;1.00;0.90;;;23.30;39.40;;;;;;6201815;23;20416;-63
2022/09/20 12:15:39;;;;;;;1.00;0.87;;;23.30;39.40;;;;;;6203131;23;20412;-59
2022/09/20 12:18:31;;;;;;;0.70;0.70;;;23.30;39.40;;;;;;6176004;23;20819;-59
2022/09/20 12:20:58;;;;;;;0.80;0.60;;;23.30;39.40;;;;;;6195237;23;20420;-59
2022/09/20 12:23:39;;;;;;;0.70;0.67;;;23.30;39.40;;;;;;6198154;23;20494;-58
2022/09/20 12:26:20;;;;;;;0.83;0.70;;;23.30;39.40;;;;;;6198433;23;20474;-61
2022/09/20 12:28:50;;;;;;;1.63;0.90;;;23.30;39.40;;;;;;6193783;23;20750;-61
2022/09/20 12:31:24;;;;;;;0.83;0.80;;;23.30;39.40;;;;;;6201799;23;20432;-62
2022/09/20 12:34:13;;;;;;;0.70;0.70;;;23.30;39.40;;;;;;6195088;23;20416;-59
2022/09/20 12:36:59;;;;;;;0.80;0.70;;;23.30;39.30;;;;;;6167393;22;20539;-63
2022/09/20 12:39:36;;;;;;;1.80;0.63;;;23.30;39.40;;;;;;6177717;23;21132;-59
2022/09/20 12:42:23;;;;;;;0.80;0.70;;;23.30;39.30;;;;;;6185125;23;20467;-60
2022/09/20 12:44:49;;;;;;;1.10;1.00;;;23.30;39.30;;;;;;6192762;23;20423;-59
2022/09/20 12:47:19;;;;;;;0.70;0.70;;;23.30;39.30;;;;;;6190406;23;20413;-63
2022/09/20 12:52:50;;;;;;;1.20;0.80;;;23.30;39.30;;;;;;6201762;23;20430;-59
2022/09/20 12:55:37;;;;;;;1.47;0.70;;;23.30;39.30;;;;;;6197995;23;20416;-62
2022/09/20 12:58:10;;;;;;;0.70;0.70;;;23.30;39.30;;;;;;6200466;23;20411;-61
2022/09/20 13:00:44;;;;;;;0.70;0.60;;;23.30;40.30;;;;;;6180690;23;20901;-59
2022/09/20 13:03:22;;;;;;;1.10;0.90;;;23.30;39.30;;;;;;6203487;23;20423;-64
2022/09/20 13:05:51;;;;;;;0.80;0.70;;;23.30;39.30;;;;;;6202065;23;20411;-61
2022/09/20 13:08:16;;;;;;;0.70;0.60;;;23.30;39.30;;;;;;6202882;23;20411;-63
2022/09/20 13:11:08;;;;;;;23.43;1.30;;;23.20;39.10;;;;;;6172561;23;20836;-64
2022/09/20 13:13:56;;;;;;;1.73;0.90;;;23.30;39.20;;;;;;6202829;23;20877;-59
2022/09/20 13:16:32;;;;;;;0.80;0.80;;;23.20;39.00;;;;;;6198147;23;20486;-63
2022/09/20 13:19:03;;;;;;;0.83;0.60;;;23.20;39.10;;;;;;6187673;23;20859;-60
2022/09/20 13:21:29;;;;;;;1.17;0.90;;;23.20;39.00;;;;;;6186126;23;20482;-66
2022/09/20 13:23:55;;;;;;;1.60;0.83;;;23.20;39.80;;;;;;6189258;23;20581;-63
2022/09/20 13:26:27;;;;;;;5.70;1.00;;;23.20;39.00;;;;;;6203969;23;20490;-65
2022/09/20 13:28:57;;;;;;;2.70;0.97;;;23.30;39.10;;;;;;6206122;23;20642;-66
2022/09/20 13:31:29;;;;;;;1.57;0.90;;;23.20;39.00;;;;;;6204379;23;20503;-68
2022/09/20 13:34:12;;;;;;;3.53;0.90;;;23.30;39.10;;;;;;6203398;23;20412;-60
2022/09/20 13:36:38;;;;;;;1.87;0.90;;;23.30;39.10;;;;;;6197398;23;20459;-65
2022/09/20 13:39:06;;;;;;;1.10;0.97;;;23.20;39.00;;;;;;6198791;23;20495;-60
2022/09/20 13:41:32;;;;;;;1.80;1.00;;;23.30;39.10;;;;;;6187294;23;20277;-60
2022/09/20 13:43:59;;;;;;;1.73;1.07;;;23.30;39.20;;;;;;6171445;23;20826;-61
2022/09/20 13:46:31;;;;;;;1.37;0.90;;;23.30;39.20;;;;;;6173343;23;20420;-64
2022/09/20 13:49:19;;;;;;;1.17;1.00;;;23.30;39.20;;;;;;6171829;23;20420;-60
2022/09/20 13:51:45;;;;;;;1.20;0.90;;;23.30;39.10;;;;;;6172568;23;20425;-66
2022/09/20 13:54:31;;;;;;;1.20;0.80;;;23.30;39.20;;;;;;6173752;23;21129;-66
2022/09/20 13:57:02;;;;;;;1.60;1.00;;;23.30;39.20;;;;;;6170962;23;20198;-64
2022/09/20 13:59:41;;;;;;;1.10;1.00;;;23.30;39.20;;;;;;6172666;23;20837;-61
2022/09/20 14:02:38;;;;;;;1.23;0.80;;;23.30;39.20;;;;;;6185679;23;20420;-65